Kirkby, United Kingdom
Current Conditions -  °F | °C
As of 8:20 PM on Thursday 23 Oct 2014 (Local Time) from EGGP Reporting Station
Scattered Clouds Scattered Clouds  
Wind Chill: 59°   Ceiling: Unl
Heat Index: 59°   Visibility: 6mi
Dew Point: 52°   Wind: 8mph
Humidity: 77%   Direction: 210°SSW
Pressure: 29.88"   Gusts: NA
Location:  53.48°N, 2.9°W
Report Text: EGGP 231920Z 21007KT 140V250 9999 SCT030 15/11 Q1012
Loading
Personal Weather Stations






























Interactive Weather Map
Tropical Storm Tracking
New forecast layout! Learn more

10-Day Weather Forecast

Advertisements
Track Severe Weather on mobile